sensor_id;sensor_type;location;lat;lon;timestamp;pressure;altitude;pressure_sealevel;temperature;humidity
16738;BME280;17906;47.684;10.806;2023-03-23T00:00:10;92837.09;;;2.75;95.21
16738;BME280;17906;47.684;10.806;2023-03-23T00:02:37;92854.59;;;2.78;94.61
16738;BME280;17906;47.684;10.806;2023-03-23T00:05:06;92847.03;;;2.55;95.75
16738;BME280;17906;47.684;10.806;2023-03-23T00:07:33;92837.16;;;2.62;95.47
16738;BME280;17906;47.684;10.806;2023-03-23T00:10:00;92847.47;;;2.52;94.02
16738;BME280;17906;47.684;10.806;2023-03-23T00:12:30;92839.88;;;2.35;94.36
16738;BME280;17906;47.684;10.806;2023-03-23T00:14:59;92846.06;;;2.29;95.20
16738;BME280;17906;47.684;10.806;2023-03-23T00:17:26;92839.03;;;2.35;94.70
16738;BME280;17906;47.684;10.806;2023-03-23T00:19:53;92837.63;;;2.39;97.42
16738;BME280;17906;47.684;10.806;2023-03-23T00:22:21;92849.94;;;2.33;98.98
16738;BME280;17906;47.684;10.806;2023-03-23T00:24:50;92841.72;;;2.42;97.39
16738;BME280;17906;47.684;10.806;2023-03-23T00:27:18;92832.44;;;2.44;97.06
16738;BME280;17906;47.684;10.806;2023-03-23T00:29:47;92833.06;;;2.53;96.53
16738;BME280;17906;47.684;10.806;2023-03-23T00:32:13;92827.47;;;2.54;98.45
16738;BME280;17906;47.684;10.806;2023-03-23T00:34:41;92831.16;;;2.67;97.39
16738;BME280;17906;47.684;10.806;2023-03-23T00:37:09;92823.56;;;2.63;97.63
16738;BME280;17906;47.684;10.806;2023-03-23T00:39:38;92838.97;;;2.68;95.83
16738;BME280;17906;47.684;10.806;2023-03-23T00:42:12;92826.22;;;2.70;95.18
16738;BME280;17906;47.684;10.806;2023-03-23T00:44:39;92818.22;;;2.57;97.64
16738;BME280;17906;47.684;10.806;2023-03-23T00:47:06;92831.59;;;2.57;97.34
16738;BME280;17906;47.684;10.806;2023-03-23T00:49:34;92809.34;;;2.63;96.78
16738;BME280;17906;47.684;10.806;2023-03-23T00:52:01;92816.59;;;2.49;97.89
16738;BME280;17906;47.684;10.806;2023-03-23T00:54:30;92819.50;;;2.48;97.43
16738;BME280;17906;47.684;10.806;2023-03-23T00:56:59;92809.78;;;2.60;96.09
16738;BME280;17906;47.684;10.806;2023-03-23T00:59:26;92800.28;;;2.64;96.71
16738;BME280;17906;47.684;10.806;2023-03-23T01:01:52;92809.56;;;2.61;97.82
16738;BME280;17906;47.684;10.806;2023-03-23T01:04:19;92809.13;;;2.64;97.55
16738;BME280;17906;47.684;10.806;2023-03-23T01:06:50;92809.13;;;2.64;96.23
16738;BME280;17906;47.684;10.806;2023-03-23T01:09:17;92815.31;;;2.65;96.07
16738;BME280;17906;47.684;10.806;2023-03-23T01:11:47;92815.13;;;2.60;96.92
16738;BME280;17906;47.684;10.806;2023-03-23T01:14:17;92807.50;;;2.57;95.71
16738;BME280;17906;47.684;10.806;2023-03-23T01:16:44;92818.41;;;2.55;95.63
16738;BME280;17906;47.684;10.806;2023-03-23T01:19:11;92810.22;;;2.50;94.66
16738;BME280;17906;47.684;10.806;2023-03-23T01:21:38;92804.66;;;2.52;95.87
16738;BME280;17906;47.684;10.806;2023-03-23T01:24:05;92799.13;;;2.40;97.41
16738;BME280;17906;47.684;10.806;2023-03-23T01:26:32;92811.03;;;2.44;97.01
16738;BME280;17906;47.684;10.806;2023-03-23T01:28:58;92801.38;;;2.50;96.63
16738;BME280;17906;47.684;10.806;2023-03-23T01:31:26;92806.13;;;2.41;97.11
16738;BME280;17906;47.684;10.806;2023-03-23T01:33:54;92801.81;;;2.33;97.02
16738;BME280;17906;47.684;10.806;2023-03-23T01:36:23;92807.59;;;2.37;97.10
16738;BME280;17906;47.684;10.806;2023-03-23T01:38:50;92803.88;;;2.25;96.72
16738;BME280;17906;47.684;10.806;2023-03-23T01:41:18;92799.78;;;2.29;96.63
16738;BME280;17906;47.684;10.806;2023-03-23T01:43:57;92787.22;;;2.23;96.56
16738;BME280;17906;47.684;10.806;2023-03-23T01:46:29;92796.75;;;2.05;96.44
16738;BME280;17906;47.684;10.806;2023-03-23T01:48:58;92792.59;;;2.16;97.02
16738;BME280;17906;47.684;10.806;2023-03-23T01:51:26;92783.94;;;2.21;96.07
16738;BME280;17906;47.684;10.806;2023-03-23T01:53:56;92790.53;;;2.12;96.39
16738;BME280;17906;47.684;10.806;2023-03-23T01:56:25;92789.94;;;2.16;96.28
16738;BME280;17906;47.684;10.806;2023-03-23T01:58:55;92788.47;;;2.20;96.36
16738;BME280;17906;47.684;10.806;2023-03-23T02:01:23;92792.78;;;2.21;97.28
16738;BME280;17906;47.684;10.806;2023-03-23T02:03:54;92785.38;;;2.23;96.78
16738;BME280;17906;47.684;10.806;2023-03-23T02:06:22;92778.38;;;2.22;96.52
16738;BME280;17906;47.684;10.806;2023-03-23T02:08:49;92785.16;;;2.25;96.88
16738;BME280;17906;47.684;10.806;2023-03-23T02:11:18;92778.19;;;2.04;96.99
16738;BME280;17906;47.684;10.806;2023-03-23T02:13:46;92783.13;;;2.14;96.75
16738;BME280;17906;47.684;10.806;2023-03-23T02:16:20;92787.03;;;2.11;96.15
16738;BME280;17906;47.684;10.806;2023-03-23T02:19:01;92776.78;;;2.01;96.33
16738;BME280;17906;47.684;10.806;2023-03-23T02:21:52;92787.88;;;1.92;97.92
16738;BME280;17906;47.684;10.806;2023-03-23T02:24:53;92792.00;;;2.01;97.17
16738;BME280;17906;47.684;10.806;2023-03-23T02:27:41;92789.13;;;1.96;97.25
16738;BME280;17906;47.684;10.806;2023-03-23T02:30:30;92786.25;;;1.97;98.23
16738;BME280;17906;47.684;10.806;2023-03-23T02:33:29;92789.56;;;1.66;97.17
16738;BME280;17906;47.684;10.806;2023-03-23T02:36:02;92784.41;;;1.71;97.24
16738;BME280;17906;47.684;10.806;2023-03-23T02:38:34;92786.69;;;1.61;99.04
16738;BME280;17906;47.684;10.806;2023-03-23T02:41:03;92796.97;;;1.64;98.33
16738;BME280;17906;47.684;10.806;2023-03-23T02:43:33;92785.66;;;1.56;99.51
16738;BME280;17906;47.684;10.806;2023-03-23T02:46:05;92787.06;;;1.45;100.00
16738;BME280;17906;47.684;10.806;2023-03-23T02:48:36;92783.41;;;1.53;100.00
16738;BME280;17906;47.684;10.806;2023-03-23T02:51:06;92792.22;;;1.53;99.79
16738;BME280;17906;47.684;10.806;2023-03-23T02:53:37;92795.72;;;1.54;97.82
16738;BME280;17906;47.684;10.806;2023-03-23T02:56:06;92791.22;;;1.61;99.05
16738;BME280;17906;47.684;10.806;2023-03-23T02:58:34;92793.88;;;1.54;98.24
16738;BME280;17906;47.684;10.806;2023-03-23T03:04:01;92794.06;;;1.39;98.00
16738;BME280;17906;47.684;10.806;2023-03-23T03:06:35;92791.59;;;1.44;97.11
16738;BME280;17906;47.684;10.806;2023-03-23T03:09:05;92784.41;;;1.45;96.14
16738;BME280;17906;47.684;10.806;2023-03-23T03:11:34;92781.34;;;1.55;95.37
16738;BME280;17906;47.684;10.806;2023-03-23T03:14:06;92788.31;;;1.36;95.52
16738;BME280;17906;47.684;10.806;2023-03-23T03:16:38;92791.59;;;1.31;95.96
16738;BME280;17906;47.684;10.806;2023-03-23T03:19:11;92785.84;;;1.41;96.40
16738;BME280;17906;47.684;10.806;2023-03-23T03:21:42;92781.94;;;1.30;94.05
16738;BME280;17906;47.684;10.806;2023-03-23T03:24:12;92783.38;;;1.33;94.71
16738;BME280;17906;47.684;10.806;2023-03-23T03:26:42;92794.44;;;1.16;94.72
16738;BME280;17906;47.684;10.806;2023-03-23T03:29:13;92785.41;;;1.17;94.22
16738;BME280;17906;47.684;10.806;2023-03-23T03:31:43;92789.91;;;1.10;96.15
16738;BME280;17906;47.684;10.806;2023-03-23T03:34:13;92792.78;;;1.15;95.51
16738;BME280;17906;47.684;10.806;2023-03-23T03:36:43;92794.00;;;1.06;95.69
16738;BME280;17906;47.684;10.806;2023-03-23T03:39:11;92800.81;;;1.22;94.62
16738;BME280;17906;47.684;10.806;2023-03-23T03:41:40;92802.66;;;1.22;94.59
16738;BME280;17906;47.684;10.806;2023-03-23T03:44:07;92804.88;;;1.05;96.76
16738;BME280;17906;47.684;10.806;2023-03-23T03:46:35;92805.91;;;1.04;97.12
16738;BME280;17906;47.684;10.806;2023-03-23T03:49:04;92801.81;;;1.14;96.86
16738;BME280;17906;47.684;10.806;2023-03-23T03:51:34;92799.31;;;1.06;97.65
16738;BME280;17906;47.684;10.806;2023-03-23T03:54:01;92803.03;;;1.05;98.10
16738;BME280;17906;47.684;10.806;2023-03-23T03:56:28;92810.38;;;0.90;98.72
16738;BME280;17906;47.684;10.806;2023-03-23T03:58:57;92816.09;;;0.80;98.83
16738;BME280;17906;47.684;10.806;2023-03-23T04:01:24;92818.19;;;0.85;98.46
16738;BME280;17906;47.684;10.806;2023-03-23T04:03:51;92817.31;;;0.78;99.57
16738;BME280;17906;47.684;10.806;2023-03-23T04:06:18;92821.84;;;0.77;100.00
16738;BME280;17906;47.684;10.806;2023-03-23T04:08:46;92813.22;;;0.82;99.89
16738;BME280;17906;47.684;10.806;2023-03-23T04:11:14;92823.47;;;0.78;100.00
16738;BME280;17906;47.684;10.806;2023-03-23T04:13:41;92813.84;;;0.77;100.00
16738;BME280;17906;47.684;10.806;2023-03-23T04:16:08;92821.59;;;0.72;100.00
16738;BME280;17906;47.684;10.806;2023-03-23T04:18:35;92824.06;;;0.67;100.00
16738;BME280;17906;47.684;10.806;2023-03-23T04:21:03;92812.00;;;0.78;100.00
16738;BME280;17906;47.684;10.806;2023-03-23T04:23:31;92830.66;;;0.84;100.00
16738;BME280;17906;47.684;10.806;2023-03-23T04:26:00;92822.91;;;0.89;100.00
16738;BME280;17906;47.684;10.806;2023-03-23T04:28:28;92821.88;;;0.90;100.00
16738;BME280;17906;47.684;10.806;2023-03-23T04:30:59;92817.41;;;0.98;100.00
16738;BME280;17906;47.684;10.806;2023-03-23T04:33:28;92820.47;;;1.01;100.00
16738;BME280;17906;47.684;10.806;2023-03-23T04:35:56;92822.16;;;1.09;100.00
16738;BME280;17906;47.684;10.806;2023-03-23T04:38:27;92808.81;;;1.09;100.00
16738;BME280;17906;47.684;10.806;2023-03-23T04:40:55;92817.84;;;1.08;100.00
16738;BME280;17906;47.684;10.806;2023-03-23T04:43:23;92819.47;;;1.15;100.00
16738;BME280;17906;47.684;10.806;2023-03-23T04:45:52;92824.19;;;1.13;100.00
16738;BME280;17906;47.684;10.806;2023-03-23T04:48:21;92816.19;;;1.13;100.00
16738;BME280;17906;47.684;10.806;2023-03-23T04:50:48;92821.72;;;1.05;100.00
16738;BME280;17906;47.684;10.806;2023-03-23T04:53:16;92813.31;;;1.08;100.00
16738;BME280;17906;47.684;10.806;2023-03-23T04:55:43;92821.94;;;1.10;100.00
16738;BME280;17906;47.684;10.806;2023-03-23T04:58:10;92822.97;;;1.16;100.00
16738;BME280;17906;47.684;10.806;2023-03-23T05:00:42;92830.97;;;1.16;100.00
16738;BME280;17906;47.684;10.806;2023-03-23T05:03:14;92824.03;;;1.22;100.00
16738;BME280;17906;47.684;10.806;2023-03-23T05:05:41;92828.94;;;1.25;100.00
16738;BME280;17906;47.684;10.806;2023-03-23T05:08:08;92827.13;;;1.32;100.00
16738;BME280;17906;47.684;10.806;2023-03-23T05:10:35;92827.13;;;1.32;100.00
16738;BME280;17906;47.684;10.806;2023-03-23T05:13:02;92812.94;;;1.31;100.00
16738;BME280;17906;47.684;10.806;2023-03-23T05:15:28;92817.66;;;1.36;100.00
16738;BME280;17906;47.684;10.806;2023-03-23T05:17:56;92815.00;;;1.36;100.00
16738;BME280;17906;47.684;10.806;2023-03-23T05:20:23;92808.25;;;1.40;100.00
16738;BME280;17906;47.684;10.806;2023-03-23T05:22:50;92804.72;;;1.26;100.00
16738;BME280;17906;47.684;10.806;2023-03-23T05:25:18;92802.69;;;1.35;100.00
16738;BME280;17906;47.684;10.806;2023-03-23T05:27:45;92806.38;;;1.47;100.00
16738;BME280;17906;47.684;10.806;2023-03-23T05:30:14;92819.56;;;1.55;100.00
16738;BME280;17906;47.684;10.806;2023-03-23T05:32:42;92811.53;;;1.55;100.00
16738;BME280;17906;47.684;10.806;2023-03-23T05:35:12;92801.88;;;1.67;100.00
16738;BME280;17906;47.684;10.806;2023-03-23T05:37:38;92801.88;;;1.81;100.00
16738;BME280;17906;47.684;10.806;2023-03-23T05:40:06;92815.84;;;1.89;100.00
16738;BME280;17906;47.684;10.806;2023-03-23T05:42:33;92811.13;;;1.98;100.00
16738;BME280;17906;47.684;10.806;2023-03-23T05:45:01;92811.53;;;2.01;100.00
16738;BME280;17906;47.684;10.806;2023-03-23T05:47:27;92809.28;;;2.05;100.00
16738;BME280;17906;47.684;10.806;2023-03-23T05:49:54;92806.19;;;2.01;100.00
16738;BME280;17906;47.684;10.806;2023-03-23T05:52:22;92801.66;;;2.02;100.00
16738;BME280;17906;47.684;10.806;2023-03-23T05:54:50;92802.47;;;2.09;100.00
16738;BME280;17906;47.684;10.806;2023-03-23T05:57:17;92807.81;;;2.22;100.00
16738;BME280;17906;47.684;10.806;2023-03-23T05:59:43;92809.66;;;2.22;100.00
16738;BME280;17906;47.684;10.806;2023-03-23T06:02:10;92809.44;;;2.30;100.00
16738;BME280;17906;47.684;10.806;2023-03-23T06:04:36;92809.63;;;2.42;100.00
16738;BME280;17906;47.684;10.806;2023-03-23T06:07:03;92807.75;;;2.42;100.00
16738;BME280;17906;47.684;10.806;2023-03-23T06:09:32;92811.47;;;2.48;100.00
16738;BME280;17906;47.684;10.806;2023-03-23T06:11:58;92810.81;;;2.52;100.00
16738;BME280;17906;47.684;10.806;2023-03-23T06:14:25;92807.72;;;2.62;100.00
16738;BME280;17906;47.684;10.806;2023-03-23T06:16:51;92809.72;;;2.73;100.00
16738;BME280;17906;47.684;10.806;2023-03-23T06:19:18;92797.78;;;2.76;100.00
16738;BME280;17906;47.684;10.806;2023-03-23T06:21:45;92794.28;;;2.75;100.00
16738;BME280;17906;47.684;10.806;2023-03-23T06:24:11;92785.59;;;2.86;100.00
16738;BME280;17906;47.684;10.806;2023-03-23T06:26:39;92792.78;;;2.92;100.00
16738;BME280;17906;47.684;10.806;2023-03-23T06:29:08;92771.50;;;3.04;100.00
16738;BME280;17906;47.684;10.806;2023-03-23T06:31:37;92775.84;;;2.99;100.00
16738;BME280;17906;47.684;10.806;2023-03-23T06:34:06;92763.41;;;3.11;100.00
16738;BME280;17906;47.684;10.806;2023-03-23T06:36:33;92763.59;;;3.16;100.00
16738;BME280;17906;47.684;10.806;2023-03-23T06:39:00;92761.31;;;3.19;100.00
16738;BME280;17906;47.684;10.806;2023-03-23T06:41:29;92763.91;;;3.33;100.00
16738;BME280;17906;47.684;10.806;2023-03-23T06:43:57;92755.94;;;3.51;100.00
16738;BME280;17906;47.684;10.806;2023-03-23T06:46:24;92757.50;;;3.65;100.00
16738;BME280;17906;47.684;10.806;2023-03-23T06:48:51;92759.88;;;3.80;100.00
16738;BME280;17906;47.684;10.806;2023-03-23T06:51:17;92757.84;;;4.00;100.00
16738;BME280;17906;47.684;10.806;2023-03-23T06:53:44;92764.69;;;4.21;100.00
16738;BME280;17906;47.684;10.806;2023-03-23T06:56:12;92764.13;;;4.31;100.00
16738;BME280;17906;47.684;10.806;2023-03-23T06:58:39;92763.22;;;4.44;100.00
16738;BME280;17906;47.684;10.806;2023-03-23T07:01:08;92767.38;;;4.58;100.00
16738;BME280;17906;47.684;10.806;2023-03-23T07:03:35;92760.34;;;4.75;100.00
16738;BME280;17906;47.684;10.806;2023-03-23T07:06:03;92765.00;;;4.86;99.85
16738;BME280;17906;47.684;10.806;2023-03-23T07:08:30;92758.00;;;4.97;97.88
16738;BME280;17906;47.684;10.806;2023-03-23T07:10:57;92759.38;;;5.18;97.21
16738;BME280;17906;47.684;10.806;2023-03-23T07:13:24;92770.47;;;5.40;95.66
16738;BME280;17906;47.684;10.806;2023-03-23T07:15:50;92772.53;;;5.68;95.63
16738;BME280;17906;47.684;10.806;2023-03-23T07:18:19;92758.78;;;5.88;95.51
16738;BME280;17906;47.684;10.806;2023-03-23T07:20:47;92768.84;;;6.04;94.72
16738;BME280;17906;47.684;10.806;2023-03-23T07:23:13;92773.00;;;6.18;90.29
16738;BME280;17906;47.684;10.806;2023-03-23T07:25:40;92776.28;;;6.44;88.99
16738;BME280;17906;47.684;10.806;2023-03-23T07:28:07;59087.34;;;-146.04;100.00
16738;BME280;17906;47.684;10.806;2023-03-23T07:30:34;92776.28;;;6.44;88.99
16738;BME280;17906;47.684;10.806;2023-03-23T07:33:04;92780.34;;;6.93;89.66
16738;BME280;17906;47.684;10.806;2023-03-23T07:35:32;92773.25;;;7.15;88.86
16738;BME280;17906;47.684;10.806;2023-03-23T07:37:59;92776.13;;;7.37;89.22
16738;BME280;17906;47.684;10.806;2023-03-23T07:40:27;92772.81;;;7.64;87.76
16738;BME280;17906;47.684;10.806;2023-03-23T07:42:56;92779.09;;;7.81;87.10
16738;BME280;17906;47.684;10.806;2023-03-23T07:45:23;92770.47;;;7.96;85.60
16738;BME280;17906;47.684;10.806;2023-03-23T07:47:50;92775.38;;;8.15;85.01
16738;BME280;17906;47.684;10.806;2023-03-23T07:50:18;92776.94;;;8.28;84.57
16738;BME280;17906;47.684;10.806;2023-03-23T07:52:48;92782.84;;;8.25;83.96
16738;BME280;17906;47.684;10.806;2023-03-23T07:55:15;92791.09;;;8.19;83.11
16738;BME280;17906;47.684;10.806;2023-03-23T07:57:43;92777.34;;;8.37;81.61
16738;BME280;17906;47.684;10.806;2023-03-23T08:00:11;92780.78;;;8.49;79.37
16738;BME280;17906;47.684;10.806;2023-03-23T08:02:41;92787.22;;;8.65;75.84
16738;BME280;17906;47.684;10.806;2023-03-23T08:05:07;92801.53;;;8.82;77.64
16738;BME280;17906;47.684;10.806;2023-03-23T08:07:35;92800.06;;;8.91;79.15
16738;BME280;17906;47.684;10.806;2023-03-23T08:10:04;92796.22;;;9.09;78.95
16738;BME280;17906;47.684;10.806;2023-03-23T08:12:31;92800.06;;;9.13;79.26
16738;BME280;17906;47.684;10.806;2023-03-23T08:14:57;92794.28;;;9.26;76.34
16738;BME280;17906;47.684;10.806;2023-03-23T08:17:24;92790.91;;;9.36;76.52
16738;BME280;17906;47.684;10.806;2023-03-23T08:19:51;92792.41;;;9.49;77.68
16738;BME280;17906;47.684;10.806;2023-03-23T08:22:18;92804.50;;;9.63;76.28
16738;BME280;17906;47.684;10.806;2023-03-23T08:24:44;92802.97;;;9.72;72.83
16738;BME280;17906;47.684;10.806;2023-03-23T08:27:12;92797.38;;;9.79;66.40
16738;BME280;17906;47.684;10.806;2023-03-23T08:29:39;92802.56;;;9.85;67.72
16738;BME280;17906;47.684;10.806;2023-03-23T08:32:06;92810.75;;;9.91;65.96
16738;BME280;17906;47.684;10.806;2023-03-23T08:34:32;92815.09;;;9.92;66.27
16738;BME280;17906;47.684;10.806;2023-03-23T08:36:59;92801.81;;;9.90;62.98
16738;BME280;17906;47.684;10.806;2023-03-23T08:39:26;92811.84;;;9.89;63.88
16738;BME280;17906;47.684;10.806;2023-03-23T08:41:53;92815.56;;;9.83;64.68
16738;BME280;17906;47.684;10.806;2023-03-23T08:44:20;92802.91;;;9.89;63.41
16738;BME280;17906;47.684;10.806;2023-03-23T08:46:47;92805.38;;;9.96;62.44
16738;BME280;17906;47.684;10.806;2023-03-23T08:49:14;92815.47;;;10.00;63.72
16738;BME280;17906;47.684;10.806;2023-03-23T08:51:41;92824.56;;;10.16;63.78
16738;BME280;17906;47.684;10.806;2023-03-23T08:54:08;92816.78;;;10.25;61.07
16738;BME280;17906;47.684;10.806;2023-03-23T08:56:35;92826.69;;;10.41;62.46
16738;BME280;17906;47.684;10.806;2023-03-23T08:59:02;92817.00;;;10.50;61.01
16738;BME280;17906;47.684;10.806;2023-03-23T09:01:30;92816.78;;;10.57;57.64
16738;BME280;17906;47.684;10.806;2023-03-23T09:03:57;92815.44;;;10.54;60.94
16738;BME280;17906;47.684;10.806;2023-03-23T09:06:25;92804.66;;;10.64;58.75
16738;BME280;17906;47.684;10.806;2023-03-23T09:08:53;92803.97;;;10.79;59.47
16738;BME280;17906;47.684;10.806;2023-03-23T09:11:20;92804.28;;;10.88;62.78
16738;BME280;17906;47.684;10.806;2023-03-23T09:13:47;92806.31;;;11.02;60.94
16738;BME280;17906;47.684;10.806;2023-03-23T09:16:14;92810.22;;;11.22;59.38
16738;BME280;17906;47.684;10.806;2023-03-23T09:18:42;92805.50;;;11.49;57.34
16738;BME280;17906;47.684;10.806;2023-03-23T09:21:09;92804.50;;;11.81;56.23
16738;BME280;17906;47.684;10.806;2023-03-23T09:23:36;92806.47;;;11.96;57.73
16738;BME280;17906;47.684;10.806;2023-03-23T09:26:03;92807.66;;;12.15;56.19
16738;BME280;17906;47.684;10.806;2023-03-23T09:28:30;92801.16;;;12.26;52.33
16738;BME280;17906;47.684;10.806;2023-03-23T09:30:57;92799.78;;;12.44;52.37
16738;BME280;17906;47.684;10.806;2023-03-23T09:33:24;92798.47;;;12.46;52.61
16738;BME280;17906;47.684;10.806;2023-03-23T09:35:52;92798.72;;;12.70;54.20
16738;BME280;17906;47.684;10.806;2023-03-23T09:38:19;92792.19;;;13.02;50.35
16738;BME280;17906;47.684;10.806;2023-03-23T09:40:48;92792.16;;;13.22;50.92
16738;BME280;17906;47.684;10.806;2023-03-23T09:43:29;92785.84;;;13.47;50.61
16738;BME280;17906;47.684;10.806;2023-03-23T09:46:06;92786.88;;;13.67;48.61
16738;BME280;17906;47.684;10.806;2023-03-23T09:48:45;92799.53;;;13.97;47.77
16738;BME280;17906;47.684;10.806;2023-03-23T09:51:21;92791.63;;;14.00;46.87
16738;BME280;17906;47.684;10.806;2023-03-23T09:53:58;92795.16;;;14.01;47.37
16738;BME280;17906;47.684;10.806;2023-03-23T09:56:29;59087.34;;;13.96;100.00
16738;BME280;17906;47.684;10.806;2023-03-23T09:59:00;59087.34;;;-146.04;100.00
16738;BME280;17906;47.684;10.806;2023-03-23T10:01:35;59087.34;;;-146.04;100.00
16738;BME280;17906;47.684;10.806;2023-03-23T10:04:07;59087.34;;;-146.04;100.00
16738;BME280;17906;47.684;10.806;2023-03-23T10:06:37;59087.34;;;-146.04;100.00
16738;BME280;17906;47.684;10.806;2023-03-23T10:09:05;59087.34;;;-146.04;100.00
16738;BME280;17906;47.684;10.806;2023-03-23T10:11:42;59087.34;;;-146.04;100.00
16738;BME280;17906;47.684;10.806;2023-03-23T10:14:25;59087.34;;;-146.04;100.00
16738;BME280;17906;47.684;10.806;2023-03-23T10:16:59;59087.34;;;-146.04;100.00
16738;BME280;17906;47.684;10.806;2023-03-23T10:19:31;59087.34;;;-146.04;100.00
16738;BME280;17906;47.684;10.806;2023-03-23T10:22:03;59087.34;;;-146.04;100.00
16738;BME280;17906;47.684;10.806;2023-03-23T10:24:34;59087.34;;;-146.04;100.00
16738;BME280;17906;47.684;10.806;2023-03-23T10:27:10;59087.34;;;-146.04;100.00
16738;BME280;17906;47.684;10.806;2023-03-23T10:29:42;59087.34;;;-146.04;100.00
16738;BME280;17906;47.684;10.806;2023-03-23T10:32:12;59087.34;;;-146.04;100.00
16738;BME280;17906;47.684;10.806;2023-03-23T10:34:42;59087.34;;;-146.04;100.00
16738;BME280;17906;47.684;10.806;2023-03-23T10:37:13;59087.34;;;-146.04;100.00
16738;BME280;17906;47.684;10.806;2023-03-23T10:39:47;59087.34;;;-146.04;100.00
16738;BME280;17906;47.684;10.806;2023-03-23T10:42:22;59087.34;;;-146.04;100.00
16738;BME280;17906;47.684;10.806;2023-03-23T10:44:49;59087.34;;;-146.04;100.00
16738;BME280;17906;47.684;10.806;2023-03-23T10:47:16;59087.34;;;-146.04;100.00
16738;BME280;17906;47.684;10.806;2023-03-23T10:49:45;59087.34;;;-146.04;100.00
16738;BME280;17906;47.684;10.806;2023-03-23T10:52:25;59087.34;;;-146.04;100.00
16738;BME280;17906;47.684;10.806;2023-03-23T10:54:56;59087.34;;;-146.04;100.00
16738;BME280;17906;47.684;10.806;2023-03-23T10:57:25;59087.34;;;-146.04;100.00
16738;BME280;17906;47.684;10.806;2023-03-23T10:59:59;59087.34;;;-146.04;100.00
16738;BME280;17906;47.684;10.806;2023-03-23T11:02:27;59087.34;;;-146.04;100.00
16738;BME280;17906;47.684;10.806;2023-03-23T11:04:57;59087.34;;;-146.04;100.00
16738;BME280;17906;47.684;10.806;2023-03-23T11:07:29;59087.34;;;-146.04;100.00
16738;BME280;17906;47.684;10.806;2023-03-23T11:10:05;59087.34;;;-146.04;100.00
16738;BME280;17906;47.684;10.806;2023-03-23T11:12:34;59087.34;;;-146.04;100.00
16738;BME280;17906;47.684;10.806;2023-03-23T11:15:24;59087.34;;;-146.04;100.00
16738;BME280;17906;47.684;10.806;2023-03-23T11:17:56;59087.34;;;-146.04;100.00
16738;BME280;17906;47.684;10.806;2023-03-23T11:20:24;59087.34;;;-146.04;100.00
16738;BME280;17906;47.684;10.806;2023-03-23T11:22:53;59087.34;;;-146.04;100.00
16738;BME280;17906;47.684;10.806;2023-03-23T11:25:20;59087.34;;;-146.04;100.00
16738;BME280;17906;47.684;10.806;2023-03-23T11:27:47;59087.34;;;-146.04;100.00
16738;BME280;17906;47.684;10.806;2023-03-23T11:30:20;59087.34;;;-146.04;100.00
16738;BME280;17906;47.684;10.806;2023-03-23T11:32:49;59087.34;;;-146.04;100.00
16738;BME280;17906;47.684;10.806;2023-03-23T11:35:20;59087.34;;;-146.04;100.00
16738;BME280;17906;47.684;10.806;2023-03-23T11:37:50;59087.34;;;-146.04;100.00
16738;BME280;17906;47.684;10.806;2023-03-23T11:40:21;59087.34;;;-146.04;100.00
16738;BME280;17906;47.684;10.806;2023-03-23T11:42:56;59087.34;;;-146.04;100.00
16738;BME280;17906;47.684;10.806;2023-03-23T11:45:30;59087.34;;;-146.04;100.00
16738;BME280;17906;47.684;10.806;2023-03-23T11:48:05;59087.34;;;-146.04;100.00
16738;BME280;17906;47.684;10.806;2023-03-23T11:50:46;59087.34;;;-146.04;100.00
16738;BME280;17906;47.684;10.806;2023-03-23T11:53:19;59087.34;;;-146.04;100.00
16738;BME280;17906;47.684;10.806;2023-03-23T11:55:59;59087.34;;;-146.04;100.00
16738;BME280;17906;47.684;10.806;2023-03-23T11:58:28;89354.25;;;-146.04;49.86
16738;BME280;17906;47.684;10.806;2023-03-23T12:01:02;92790.81;;;16.37;38.92
16738;BME280;17906;47.684;10.806;2023-03-23T12:03:44;92792.56;;;16.04;39.17
16738;BME280;17906;47.684;10.806;2023-03-23T12:06:20;92787.78;;;15.95;37.92
16738;BME280;17906;47.684;10.806;2023-03-23T12:08:59;92796.28;;;15.94;37.54
16738;BME280;17906;47.684;10.806;2023-03-23T12:11:37;92780.19;;;16.11;38.76
16738;BME280;17906;47.684;10.806;2023-03-23T12:14:16;92787.78;;;15.95;36.95
16738;BME280;17906;47.684;10.806;2023-03-23T12:16:59;92795.84;;;15.82;37.31
16738;BME280;17906;47.684;10.806;2023-03-23T12:19:33;92790.00;;;15.46;37.16
16738;BME280;17906;47.684;10.806;2023-03-23T12:22:14;92803.72;;;15.41;38.25
16738;BME280;17906;47.684;10.806;2023-03-23T12:24:56;92786.72;;;15.44;38.06
16738;BME280;17906;47.684;10.806;2023-03-23T12:27:33;92789.78;;;15.37;38.72
16738;BME280;17906;47.684;10.806;2023-03-23T12:30:14;92785.75;;;15.58;38.98
16738;BME280;17906;47.684;10.806;2023-03-23T12:32:54;92778.75;;;15.71;39.60
16738;BME280;17906;47.684;10.806;2023-03-23T12:35:34;92770.97;;;15.59;38.99
16738;BME280;17906;47.684;10.806;2023-03-23T12:38:16;92791.22;;;15.58;40.15
16738;BME280;17906;47.684;10.806;2023-03-23T12:40:57;92775.38;;;15.02;39.15
16738;BME280;17906;47.684;10.806;2023-03-23T12:43:33;92774.25;;;14.74;40.30
16738;BME280;17906;47.684;10.806;2023-03-23T12:49:12;92775.44;;;14.63;41.58
16738;BME280;17906;47.684;10.806;2023-03-23T12:51:45;92773.09;;;14.46;41.86
16738;BME280;17906;47.684;10.806;2023-03-23T12:54:21;92773.34;;;14.50;41.89
16738;BME280;17906;47.684;10.806;2023-03-23T12:56:52;92771.09;;;14.57;42.51
16738;BME280;17906;47.684;10.806;2023-03-23T12:59:30;92781.06;;;14.77;42.14
16738;BME280;17906;47.684;10.806;2023-03-23T13:02:12;92781.06;;;14.77;42.14
16738;BME280;17906;47.684;10.806;2023-03-23T13:04:43;92755.47;;;15.26;41.67
16738;BME280;17906;47.684;10.806;2023-03-23T13:07:15;92766.09;;;15.27;39.93
16738;BME280;17906;47.684;10.806;2023-03-23T13:09:50;92764.19;;;15.28;39.53